createdAt,value
2019-06-20T00:01:08.521Z,98388.77
2019-06-20T00:03:42.514Z,98400.77
2019-06-20T00:06:16.379Z,98405.38
2019-06-20T00:08:50.559Z,98408.66
2019-06-20T00:11:24.632Z,98410.86
2019-06-20T00:13:58.865Z,98408.52
2019-06-20T00:16:32.930Z,98418.86
2019-06-20T00:19:07.315Z,98416.52
2019-06-20T00:21:41.633Z,98416.08
2019-06-20T00:24:15.756Z,98419.69
2019-06-20T00:26:49.765Z,98424.91
2019-06-20T00:29:23.718Z,98423.88
2019-06-20T00:31:57.943Z,98431.03
2019-06-20T00:34:32.285Z,98432.97
2019-06-20T00:37:06.624Z,98440.11
2019-06-20T00:39:40.825Z,98440.95
2019-06-20T00:42:14.860Z,98436.34
2019-06-20T00:44:48.923Z,98434.44
2019-06-20T00:47:23.076Z,98444.35
2019-06-20T00:49:57.206Z,98446.28
2019-06-20T00:52:31.198Z,98453.41
2019-06-20T00:55:05.367Z,98443.03
2019-06-20T00:57:39.556Z,98452.61
2019-06-20T01:00:15.419Z,98453.98
2019-06-20T01:02:50.062Z,98448.80
2019-06-20T01:05:24.838Z,98447.71
2019-06-20T01:08:01.317Z,98452.08
2019-06-20T01:10:36.037Z,98455.64
2019-06-20T01:13:10.856Z,98458.67
2019-06-20T01:15:46.120Z,98472.94
2019-06-20T01:18:20.980Z,98477.30
2019-06-20T01:20:55.876Z,98475.14
2019-06-20T01:23:30.030Z,98475.95
2019-06-20T01:26:04.227Z,98472.12
2019-06-20T01:28:38.057Z,98473.23
2019-06-20T01:31:12.367Z,98481.73
2019-06-20T01:33:46.482Z,98482.83
2019-06-20T01:36:20.638Z,98486.40
2019-06-20T01:38:54.564Z,98488.06
2019-06-20T01:41:28.809Z,98485.05
2019-06-20T01:44:02.972Z,98487.52
2019-06-20T01:46:37.230Z,98492.16
2019-06-20T01:49:11.394Z,98492.17
2019-06-20T01:51:45.501Z,98491.09
2019-06-20T01:54:19.874Z,98497.95
2019-06-20T01:56:53.887Z,98502.35
2019-06-20T01:59:28.021Z,98490.03
2019-06-20T02:02:02.047Z,98498.79
2019-06-20T02:04:36.328Z,98498.52
2019-06-20T02:07:10.607Z,98504.81
2019-06-20T02:09:44.685Z,98504.56
2019-06-20T02:12:18.961Z,98505.93
2019-06-20T02:14:53.160Z,98508.67
2019-06-20T02:17:27.176Z,98514.70
2019-06-20T02:20:01.368Z,98514.43
2019-06-20T02:22:36.387Z,98519.35
2019-06-20T02:25:11.036Z,98516.38
2019-06-20T02:27:44.979Z,98510.89
2019-06-20T02:30:19.118Z,98508.41
2019-06-20T02:32:52.995Z,98512.81
2019-06-20T02:35:28.478Z,98515.28
2019-06-20T02:38:02.455Z,98515.33
2019-06-20T02:40:36.906Z,98522.99
2019-06-20T02:43:11.104Z,98522.47
2019-06-20T02:45:45.466Z,98520.27
2019-06-20T02:48:19.701Z,98520.55
2019-06-20T02:50:53.933Z,98520.27
2019-06-20T02:53:27.913Z,98518.62
2019-06-20T02:56:01.988Z,98519.44
2019-06-20T02:58:35.987Z,98519.19
2019-06-20T03:01:10.177Z,98521.10
2019-06-20T03:03:44.287Z,98519.20
2019-06-20T03:06:18.449Z,98512.09
2019-06-20T03:08:52.717Z,98518.38
2019-06-20T03:11:26.880Z,98514.83
2019-06-20T03:14:00.847Z,98512.93
2019-06-20T03:16:35.670Z,98510.73
2019-06-20T03:19:09.977Z,98516.78
2019-06-20T03:21:44.138Z,98523.08
2019-06-20T03:24:18.506Z,98521.13
2019-06-20T03:26:52.826Z,98520.05
2019-06-20T03:29:27.023Z,98515.66
2019-06-20T03:32:01.282Z,98516.23
2019-06-20T03:34:35.234Z,98516.77
2019-06-20T03:37:09.198Z,98514.86
2019-06-20T03:39:43.171Z,98514.60
2019-06-20T03:42:17.212Z,98517.05
2019-06-20T03:45:01.652Z,98511.29
2019-06-20T03:47:26.969Z,98516.80
2019-06-20T03:50:01.095Z,98519.04
2019-06-20T03:52:35.294Z,98517.13
2019-06-20T03:55:09.775Z,98521.50
2019-06-20T03:57:43.816Z,98521.23
2019-06-20T04:00:18.163Z,98522.63
2019-06-20T04:02:52.410Z,98519.31
2019-06-20T04:05:26.693Z,98518.77
2019-06-20T04:08:00.771Z,98518.48
2019-06-20T04:10:34.858Z,98517.67
2019-06-20T04:13:09.022Z,98516.03
2019-06-20T04:15:43.049Z,98522.34
2019-06-20T04:18:17.024Z,98526.73
2019-06-20T04:20:51.101Z,98530.02
2019-06-20T04:23:25.361Z,98527.00
2019-06-20T04:25:59.544Z,98521.26
2019-06-20T04:28:33.567Z,98529.21
2019-06-20T04:31:07.686Z,98536.08
2019-06-20T04:33:42.731Z,98536.89
2019-06-20T04:36:16.985Z,98527.30
2019-06-20T04:38:51.196Z,98522.09
2019-06-20T04:41:25.614Z,98518.27
2019-06-20T04:43:59.649Z,98512.50
2019-06-20T04:46:46.196Z,98516.61
2019-06-20T04:49:20.655Z,98504.29
2019-06-20T04:51:54.802Z,98502.36
2019-06-20T04:54:28.846Z,98502.36
2019-06-20T04:57:03.052Z,98504.30
2019-06-20T04:59:37.022Z,98497.98
2019-06-20T05:02:14.782Z,98493.92
2019-06-20T05:04:47.123Z,98496.67
2019-06-20T05:07:22.345Z,98488.98
2019-06-20T05:09:56.244Z,98501.06
2019-06-20T05:12:30.290Z,98498.84
2019-06-20T05:15:04.299Z,98507.35
2019-06-20T05:17:38.341Z,98505.16
2019-06-20T05:20:12.574Z,98502.42
2019-06-20T05:22:46.728Z,98499.67
2019-06-20T05:25:21.108Z,98499.41
2019-06-20T05:27:55.296Z,98500.21
2019-06-20T05:30:29.316Z,98499.13
2019-06-20T05:33:03.454Z,98498.04
2019-06-20T05:35:38.728Z,98502.44
2019-06-20T05:38:13.480Z,98502.44
2019-06-20T05:40:47.499Z,98506.80
2019-06-20T05:43:27.475Z,98504.63
2019-06-20T05:46:09.736Z,98497.77
2019-06-20T05:48:37.429Z,98495.56
2019-06-20T05:51:11.780Z,98487.09
2019-06-20T05:53:46.942Z,98482.41
2019-06-20T05:56:21.505Z,98485.14
2019-06-20T05:58:55.618Z,98484.06
2019-06-20T06:01:29.830Z,98484.06
2019-06-20T06:04:04.939Z,98485.97
2019-06-20T06:06:39.073Z,98484.06
2019-06-20T06:09:14.171Z,98482.42
2019-06-20T06:11:48.322Z,98485.17
2019-06-20T06:14:22.558Z,98486.27
2019-06-20T06:16:56.610Z,98478.30
2019-06-20T06:19:30.607Z,98486.25
2019-06-20T06:22:07.578Z,98475.00
2019-06-20T06:24:41.966Z,98479.67
2019-06-20T06:27:16.079Z,98477.47
2019-06-20T06:29:50.730Z,98470.89
2019-06-20T06:32:39.167Z,98464.31
2019-06-20T06:35:01.873Z,98471.45
2019-06-20T06:37:37.525Z,98467.61
2019-06-20T06:40:12.316Z,98461.28
2019-06-20T06:42:47.236Z,98458.00
2019-06-20T06:45:24.908Z,98456.63
2019-06-20T06:47:59.867Z,98459.91
2019-06-20T06:50:35.583Z,98451.95
2019-06-20T06:53:09.588Z,98444.30
2019-06-20T06:55:43.800Z,98447.03
2019-06-20T06:58:18.005Z,98442.08
2019-06-20T07:00:52.435Z,98443.73
2019-06-20T07:03:27.509Z,98434.94
2019-06-20T07:06:03.940Z,98436.31
2019-06-20T07:08:38.310Z,98437.41
2019-06-20T07:11:13.611Z,98425.06
2019-06-20T07:13:49.528Z,98418.48
2019-06-20T07:16:25.425Z,98414.65
2019-06-20T07:18:59.589Z,98411.62
2019-06-20T07:21:36.003Z,98406.95
2019-06-20T07:24:15.533Z,98407.23
2019-06-20T07:26:53.826Z,98410.26
2019-06-20T07:29:32.923Z,98411.88
2019-06-20T07:32:12.977Z,98403.65
2019-06-20T07:34:51.405Z,98396.79
2019-06-20T07:37:27.887Z,98397.88
2019-06-20T07:40:02.068Z,98393.77
2019-06-20T07:42:39.517Z,98391.30
2019-06-20T07:45:14.475Z,98392.39
2019-06-20T07:47:52.249Z,98392.39
2019-06-20T07:50:29.766Z,98396.23
2019-06-20T07:53:04.880Z,98390.21
2019-06-20T07:55:46.970Z,98392.67
2019-06-20T07:58:22.657Z,98383.88
2019-06-20T08:00:57.295Z,98380.05
2019-06-20T08:03:31.437Z,98381.70
2019-06-20T08:06:06.393Z,98374.84
2019-06-20T08:08:42.140Z,98376.17
2019-06-20T08:11:19.109Z,98362.45
2019-06-20T08:13:54.757Z,98362.20
2019-06-20T08:16:29.188Z,98358.09
2019-06-20T08:19:04.330Z,98355.59
2019-06-20T08:21:39.310Z,98358.62
2019-06-20T08:24:20.412Z,98356.41
2019-06-20T08:26:56.757Z,98355.03
2019-06-20T08:29:33.820Z,98352.56
2019-06-20T08:32:07.830Z,98348.73
2019-06-20T08:34:41.644Z,98343.80
2019-06-20T08:37:18.710Z,98330.07
2019-06-20T08:39:53.509Z,98328.70
2019-06-20T08:42:27.829Z,98329.79
2019-06-20T08:45:01.923Z,98321.55
2019-06-20T08:47:36.119Z,98315.19
2019-06-20T08:50:10.737Z,98312.48
2019-06-20T08:52:44.923Z,98320.05
2019-06-20T08:55:20.118Z,98314.85
2019-06-20T08:57:55.632Z,98309.62
2019-06-20T09:00:30.938Z,98307.63
2019-06-20T09:03:05.309Z,98305.69
2019-06-20T09:05:39.708Z,98307.82
2019-06-20T09:08:14.509Z,98306.70
2019-06-20T09:10:48.743Z,98300.89
2019-06-20T09:13:23.046Z,98297.81
2019-06-20T09:15:57.149Z,98287.64
2019-06-20T09:18:32.454Z,98291.19
2019-06-20T09:21:06.505Z,98286.50
2019-06-20T09:23:40.683Z,98275.81
2019-06-20T09:26:15.039Z,98282.91
2019-06-20T09:28:51.038Z,98272.50
2019-06-20T09:31:25.932Z,98267.80
2019-06-20T09:34:04.884Z,98261.23
2019-06-20T09:36:38.193Z,98249.16
2019-06-20T09:39:12.327Z,98251.08
2019-06-20T09:41:47.407Z,98250.78
2019-06-20T09:44:21.735Z,98241.47
2019-06-20T09:46:56.447Z,98242.04
2019-06-20T09:49:31.093Z,98236.53
2019-06-20T09:52:06.817Z,98232.98
2019-06-20T09:54:41.227Z,98230.61
2019-06-20T09:57:15.582Z,98222.95
2019-06-20T10:00:03.255Z,98213.09
2019-06-20T10:02:27.354Z,98209.28
2019-06-20T10:05:02.353Z,98214.20
2019-06-20T10:07:37.981Z,98206.59
2019-06-20T10:10:12.540Z,98207.70
2019-06-20T10:12:48.039Z,98197.34
2019-06-20T10:15:28.502Z,98203.35
2019-06-20T10:18:02.796Z,98202.81
2019-06-20T10:20:39.722Z,98185.05
2019-06-20T10:23:15.368Z,98179.57
2019-06-20T10:25:51.514Z,98175.48
2019-06-20T10:28:27.214Z,98165.37
2019-06-20T10:31:01.295Z,98157.70
2019-06-20T10:33:35.236Z,98157.98
2019-06-20T10:36:09.620Z,98151.70
2019-06-20T10:38:45.335Z,98155.54
2019-06-20T10:41:19.548Z,98149.28
2019-06-20T10:43:54.118Z,98149.53
2019-06-20T10:46:28.451Z,98151.47
2019-06-20T10:49:03.922Z,98144.36
2019-06-20T10:51:56.551Z,98148.48
2019-06-20T10:54:31.463Z,98132.31
2019-06-20T10:57:05.775Z,98124.11
2019-06-20T10:59:44.259Z,98121.38
2019-06-20T11:02:21.600Z,98116.74
2019-06-20T11:05:00.370Z,98110.16
2019-06-20T11:07:34.536Z,98103.33
2019-06-20T11:10:11.319Z,98105.24
2019-06-20T11:12:52.407Z,98100.05
2019-06-20T11:15:28.424Z,98100.06
2019-06-20T11:18:03.867Z,98095.94
2019-06-20T11:20:39.501Z,98093.20
2019-06-20T11:23:15.804Z,98091.59
2019-06-20T11:25:50.095Z,98082.00
2019-06-20T11:28:24.202Z,98086.64
2019-06-20T11:31:00.623Z,98085.84
2019-06-20T11:33:36.587Z,98080.36
2019-06-20T11:36:11.271Z,98077.67
2019-06-20T11:38:45.774Z,98074.66
2019-06-20T11:41:21.195Z,98073.25
2019-06-20T11:43:55.182Z,98072.44
2019-06-20T11:46:30.546Z,98065.03
2019-06-20T11:49:04.469Z,98068.34
2019-06-20T11:51:39.859Z,98061.25
2019-06-20T11:54:14.295Z,98060.13
2019-06-20T11:56:48.293Z,98057.64
2019-06-20T11:59:22.472Z,98054.38
2019-06-20T12:01:56.333Z,98061.50
2019-06-20T12:04:31.247Z,98065.36
2019-06-20T12:07:06.237Z,98062.06
2019-06-20T12:09:40.939Z,98063.39
2019-06-20T12:12:15.284Z,98060.42
2019-06-20T12:14:49.813Z,98062.88
2019-06-20T12:17:24.168Z,98057.97
2019-06-20T12:19:58.279Z,98061.51
2019-06-20T12:22:32.518Z,98062.88
2019-06-20T12:25:06.711Z,98065.91
2019-06-20T12:27:42.951Z,98057.41
2019-06-20T12:30:19.603Z,98062.88
2019-06-20T12:32:53.758Z,98053.86
2019-06-20T12:35:28.292Z,98057.97
2019-06-20T12:38:02.345Z,98052.22
2019-06-20T12:40:39.080Z,98059.06
2019-06-20T12:43:12.560Z,98065.06
2019-06-20T12:45:47.419Z,98063.44
2019-06-20T12:48:21.687Z,98059.86
2019-06-20T12:50:55.893Z,98062.89
2019-06-20T12:53:30.292Z,98059.61
2019-06-20T12:56:04.334Z,98068.58
2019-06-20T12:58:39.460Z,98069.19
2019-06-20T13:01:14.531Z,98072.98
2019-06-20T13:03:50.474Z,98064.52
2019-06-20T13:06:24.735Z,98071.65
2019-06-20T13:08:58.979Z,98071.31
2019-06-20T13:11:33.275Z,98073.25
2019-06-20T13:14:07.877Z,98077.60
2019-06-20T13:16:42.783Z,98074.60
2019-06-20T13:19:17.270Z,98083.09
2019-06-20T13:22:06.910Z,98082.81
2019-06-20T13:24:41.059Z,98089.39
2019-06-20T13:27:15.047Z,98095.13
2019-06-20T13:29:49.508Z,98086.38
2019-06-20T13:32:23.693Z,98087.46
2019-06-20T13:34:58.025Z,98085.57
2019-06-20T13:37:32.188Z,98089.66
2019-06-20T13:40:07.377Z,98083.89
2019-06-20T13:42:43.649Z,98083.58
2019-06-20T13:45:25.219Z,98086.59
2019-06-20T13:47:59.280Z,98084.37
2019-06-20T13:50:33.322Z,98079.66
2019-06-20T13:53:07.583Z,98086.77
2019-06-20T13:55:42.876Z,98088.37
2019-06-20T13:58:18.096Z,98085.63
2019-06-20T14:00:52.822Z,98086.45
2019-06-20T14:03:26.917Z,98091.37
2019-06-20T14:06:00.997Z,98094.91
2019-06-20T14:08:35.341Z,98091.59
2019-06-20T14:11:09.440Z,98098.16
2019-06-20T14:13:46.799Z,98102.78
2019-06-20T14:16:19.949Z,98103.05
2019-06-20T14:18:57.047Z,98106.59
2019-06-20T14:21:31.234Z,98113.44
2019-06-20T14:24:05.145Z,98120.00
2019-06-20T14:26:39.308Z,98115.93
2019-06-20T14:29:13.489Z,98117.16
2019-06-20T14:31:47.680Z,98126.16
2019-06-20T14:34:21.646Z,98127.22
2019-06-20T14:36:57.886Z,98137.59
2019-06-20T14:39:34.262Z,98142.51
2019-06-20T14:42:09.444Z,98152.09
2019-06-20T14:44:44.641Z,98150.36
2019-06-20T14:47:20.993Z,98157.52
2019-06-20T14:49:55.429Z,98158.03
2019-06-20T14:52:29.691Z,98156.64
2019-06-20T14:55:04.024Z,98163.20
2019-06-20T14:57:38.279Z,98170.32
2019-06-20T15:00:13.270Z,98181.54
2019-06-20T15:02:48.002Z,98176.02
2019-06-20T15:05:23.331Z,98183.67
2019-06-20T15:07:57.807Z,98197.12
2019-06-20T15:10:32.020Z,98203.16
2019-06-20T15:13:07.180Z,98200.92
2019-06-20T15:15:41.455Z,98200.92
2019-06-20T15:18:15.589Z,98208.57
2019-06-20T15:20:50.241Z,98215.70
2019-06-20T15:23:25.922Z,98219.23
2019-06-20T15:26:00.142Z,98217.84
2019-06-20T15:28:34.427Z,98217.84
2019-06-20T15:31:08.792Z,98228.47
2019-06-20T15:33:43.984Z,98228.47
2019-06-20T15:36:18.175Z,98232.06
2019-06-20T15:38:53.059Z,98231.72
2019-06-20T15:41:27.579Z,98230.40
2019-06-20T15:44:01.876Z,98240.50
2019-06-20T15:46:35.944Z,98246.28
2019-06-20T15:49:16.155Z,98246.28
2019-06-20T15:51:46.341Z,98250.89
2019-06-20T15:54:23.670Z,98247.17
2019-06-20T15:56:56.522Z,98248.48
2019-06-20T15:59:30.743Z,98255.77
2019-06-20T16:02:05.040Z,98258.63
2019-06-20T16:04:39.229Z,98269.50
2019-06-20T16:07:15.034Z,98276.59
2019-06-20T16:09:49.202Z,98274.41
2019-06-20T16:12:23.360Z,98272.45
2019-06-20T16:14:57.827Z,98283.38
2019-06-20T16:17:31.905Z,98282.09
2019-06-20T16:20:06.378Z,98295.79
2019-06-20T16:22:40.798Z,98301.11
2019-06-20T16:25:15.447Z,98303.16
2019-06-20T16:27:49.747Z,98295.20
2019-06-20T16:30:25.450Z,98303.69
2019-06-20T16:33:00.125Z,98310.23
2019-06-20T16:35:34.417Z,98310.23
2019-06-20T16:38:08.653Z,98319.53
2019-06-20T16:40:50.236Z,98318.88
2019-06-20T16:43:24.368Z,98330.84
2019-06-20T16:45:58.513Z,98331.72
2019-06-20T16:48:32.913Z,98337.69
2019-06-20T16:51:06.872Z,98332.80
2019-06-20T16:53:41.087Z,98340.47
2019-06-20T16:56:15.256Z,98343.58
2019-06-20T16:58:49.499Z,98339.19
2019-06-20T17:01:23.393Z,98343.34
2019-06-20T17:03:57.562Z,98345.75
2019-06-20T17:06:31.732Z,98345.54
2019-06-20T17:09:08.415Z,98349.45
2019-06-20T17:11:43.801Z,98354.89
2019-06-20T17:14:17.812Z,98360.38
2019-06-20T17:16:53.210Z,98364.74
2019-06-20T17:19:27.391Z,98365.27
2019-06-20T17:22:01.368Z,98367.16
2019-06-20T17:24:35.323Z,98365.06
2019-06-20T17:27:09.599Z,98374.16
2019-06-20T17:29:43.708Z,98375.81
2019-06-20T17:32:17.851Z,98378.68
2019-06-20T17:34:52.040Z,98379.45
2019-06-20T17:37:26.042Z,98383.06
2019-06-20T17:39:59.940Z,98382.78
2019-06-20T17:42:34.800Z,98381.80
2019-06-20T17:45:09.595Z,98376.02
2019-06-20T17:47:43.650Z,98381.95
2019-06-20T17:50:19.380Z,98372.04
2019-06-20T17:52:53.238Z,98364.38
2019-06-20T17:55:28.181Z,98362.16
2019-06-20T17:58:02.387Z,98366.59
2019-06-20T18:00:37.151Z,98365.52
2019-06-20T18:03:11.254Z,98365.80
2019-06-20T18:05:45.307Z,98369.64
2019-06-20T18:08:19.516Z,98355.44
2019-06-20T18:10:53.812Z,98363.35
2019-06-20T18:13:27.993Z,98357.65
2019-06-20T18:16:02.171Z,98357.67
2019-06-20T18:18:36.131Z,98357.38
2019-06-20T18:21:10.424Z,98364.56
2019-06-20T18:23:44.876Z,98373.05
2019-06-20T18:26:19.271Z,98371.42
2019-06-20T18:28:53.593Z,98386.44
2019-06-20T18:31:27.697Z,98384.08
2019-06-20T18:34:02.102Z,98377.18
2019-06-20T18:36:36.287Z,98381.40
2019-06-20T18:39:11.457Z,98383.64
2019-06-20T18:41:47.520Z,98379.27
2019-06-20T18:44:21.821Z,98381.77
2019-06-20T18:46:55.941Z,98384.27
2019-06-20T18:49:30.007Z,98383.47
2019-06-20T18:52:04.273Z,98390.33
2019-06-20T18:54:38.358Z,98389.53
2019-06-20T18:57:12.532Z,98382.19
2019-06-20T18:59:46.801Z,98389.39
2019-06-20T19:02:21.089Z,98386.30
2019-06-20T19:04:54.993Z,98389.29
2019-06-20T19:07:29.071Z,98387.34
2019-06-20T19:10:03.447Z,98390.80
2019-06-20T19:12:37.455Z,98383.42
2019-06-20T19:15:11.744Z,98382.83
2019-06-20T19:17:45.681Z,98378.25
2019-06-20T19:20:20.172Z,98368.23
2019-06-20T19:22:54.387Z,98380.10
2019-06-20T19:25:28.550Z,98385.23
2019-06-20T19:28:02.473Z,98380.28
2019-06-20T19:30:50.545Z,98373.17
2019-06-20T19:33:24.713Z,98371.03
2019-06-20T19:35:59.183Z,98374.88
2019-06-20T19:38:33.422Z,98365.24
2019-06-20T19:41:07.734Z,98367.56
2019-06-20T19:43:42.011Z,98370.39
2019-06-20T19:46:16.170Z,98372.83
2019-06-20T19:48:50.239Z,98370.09
2019-06-20T19:51:25.394Z,98357.32
2019-06-20T19:54:00.683Z,98364.18
2019-06-20T19:56:34.645Z,98363.89
2019-06-20T19:59:09.022Z,98357.09
2019-06-20T20:01:43.281Z,98355.06
2019-06-20T20:04:17.267Z,98348.33
2019-06-20T20:06:51.327Z,98354.69
2019-06-20T20:09:25.562Z,98351.31
2019-06-20T20:11:59.720Z,98349.84
2019-06-20T20:14:33.607Z,98342.17
2019-06-20T20:17:07.881Z,98342.47
2019-06-20T20:19:42.030Z,98339.19
2019-06-20T20:22:16.195Z,98342.20
2019-06-20T20:24:50.306Z,98341.67
2019-06-20T20:27:24.502Z,98342.37
2019-06-20T20:29:58.505Z,98338.02
2019-06-20T20:32:32.594Z,98330.72
2019-06-20T20:35:07.194Z,98329.91
2019-06-20T20:37:41.382Z,98332.97
2019-06-20T20:40:15.722Z,98331.94
2019-06-20T20:42:49.764Z,98328.39
2019-06-20T20:45:24.381Z,98328.27
2019-06-20T20:47:58.770Z,98336.73
2019-06-20T20:50:33.045Z,98328.91
2019-06-20T20:53:07.245Z,98326.90
2019-06-20T20:55:41.660Z,98329.27
2019-06-20T20:58:15.749Z,98319.16
2019-06-20T21:01:05.922Z,98321.89
2019-06-20T21:03:40.163Z,98316.01
2019-06-20T21:06:14.492Z,98316.59
2019-06-20T21:08:48.451Z,98316.33
2019-06-20T21:11:22.465Z,98312.41
2019-06-20T21:13:56.723Z,98306.63
2019-06-20T21:16:31.316Z,98310.91
2019-06-20T21:19:05.664Z,98312.27
2019-06-20T21:21:39.969Z,98310.91
2019-06-20T21:24:14.203Z,98317.48
2019-06-20T21:26:50.065Z,98313.05
2019-06-20T21:29:25.213Z,98315.48
2019-06-20T21:31:59.511Z,98316.33
2019-06-20T21:34:33.794Z,98314.75
2019-06-20T21:37:07.884Z,98311.88
2019-06-20T21:39:42.020Z,98311.00
2019-06-20T21:42:16.047Z,98302.81
2019-06-20T21:44:50.198Z,98306.09
2019-06-20T21:47:24.317Z,98305.02
2019-06-20T21:49:58.495Z,98302.30
2019-06-20T21:52:32.306Z,98296.61
2019-06-20T21:55:06.464Z,98301.58
2019-06-20T21:57:40.485Z,98299.47
2019-06-20T22:00:17.818Z,98300.22
2019-06-20T22:02:53.488Z,98302.92
2019-06-20T22:05:27.465Z,98301.45
2019-06-20T22:08:01.588Z,98297.39
2019-06-20T22:10:36.125Z,98295.77
2019-06-20T22:13:10.214Z,98300.70
2019-06-20T22:15:44.469Z,98296.78
2019-06-20T22:18:18.695Z,98299.17
2019-06-20T22:20:52.665Z,98298.38
2019-06-20T22:23:27.904Z,98296.94
2019-06-20T22:26:02.037Z,98300.48
2019-06-20T22:28:36.244Z,98308.37
2019-06-20T22:31:10.501Z,98304.80
2019-06-20T22:33:44.659Z,98303.44
2019-06-20T22:36:19.051Z,98308.56
2019-06-20T22:38:53.431Z,98309.67
2019-06-20T22:41:27.865Z,98306.69
2019-06-20T22:44:02.075Z,98304.02
2019-06-20T22:46:36.281Z,98302.33
2019-06-20T22:49:10.416Z,98301.81
2019-06-20T22:51:44.624Z,98297.16
2019-06-20T22:54:18.762Z,98291.16
2019-06-20T22:56:53.148Z,98295.25
2019-06-20T22:59:27.271Z,98295.02
2019-06-20T23:02:01.484Z,98300.80
2019-06-20T23:04:35.828Z,98300.58
2019-06-20T23:07:09.938Z,98304.02
2019-06-20T23:09:44.051Z,98304.80
2019-06-20T23:12:18.259Z,98305.06
2019-06-20T23:14:52.328Z,98308.89
2019-06-20T23:17:26.426Z,98304.25
2019-06-20T23:20:00.632Z,98309.70
2019-06-20T23:22:35.225Z,98312.83
2019-06-20T23:25:09.950Z,98318.54
2019-06-20T23:27:44.203Z,98326.52
2019-06-20T23:30:19.330Z,98330.20
2019-06-20T23:32:53.661Z,98323.61
2019-06-20T23:35:27.775Z,98338.25
2019-06-20T23:38:04.497Z,98331.46
2019-06-20T23:40:37.730Z,98337.99
2019-06-20T23:43:12.114Z,98343.45
2019-06-20T23:45:46.302Z,98347.50
2019-06-20T23:48:20.589Z,98350.56
2019-06-20T23:50:54.496Z,98361.30
2019-06-20T23:53:29.158Z,98368.30
2019-06-20T23:56:07.854Z,98366.94
2019-06-20T23:58:40.173Z,98372.66
